sensor_id;sensor_type;location;lat;lon;timestamp;pressure;altitude;pressure_sealevel;temperature;humidity
78679;BME280;67994;59.334;13.528;2023-07-30T00:00:00;99700.0;;;17.9;82.4
78679;BME280;67994;59.334;13.528;2023-07-30T00:01:00;99700.0;;;17.8;83.0
78679;BME280;67994;59.334;13.528;2023-07-30T00:02:00;99700.0;;;17.9;82.6
78679;BME280;67994;59.334;13.528;2023-07-30T00:03:00;99700.0;;;17.9;82.0
78679;BME280;67994;59.334;13.528;2023-07-30T00:04:00;99700.0;;;17.9;80.6
78679;BME280;67994;59.334;13.528;2023-07-30T00:05:00;99700.0;;;18.0;81.7
78679;BME280;67994;59.334;13.528;2023-07-30T00:06:00;99700.0;;;17.9;81.9
78679;BME280;67994;59.334;13.528;2023-07-30T00:07:00;99700.0;;;17.8;82.0
78679;BME280;67994;59.334;13.528;2023-07-30T00:08:00;99700.0;;;17.8;82.3
78679;BME280;67994;59.334;13.528;2023-07-30T00:09:00;99700.0;;;17.7;82.9
78679;BME280;67994;59.334;13.528;2023-07-30T00:10:00;99700.0;;;17.6;83.1
78679;BME280;67994;59.334;13.528;2023-07-30T00:11:00;99700.0;;;17.7;82.9
78679;BME280;67994;59.334;13.528;2023-07-30T00:12:00;99700.0;;;17.8;81.6
78679;BME280;67994;59.334;13.528;2023-07-30T00:13:00;99700.0;;;17.8;82.3
78679;BME280;67994;59.334;13.528;2023-07-30T00:14:00;99700.0;;;17.8;82.3
78679;BME280;67994;59.334;13.528;2023-07-30T00:15:00;99700.0;;;17.8;81.4
78679;BME280;67994;59.334;13.528;2023-07-30T00:16:00;99700.0;;;17.8;82.2
78679;BME280;67994;59.334;13.528;2023-07-30T00:17:00;99700.0;;;17.8;82.0
78679;BME280;67994;59.334;13.528;2023-07-30T00:18:00;99700.0;;;17.9;81.4
78679;BME280;67994;59.334;13.528;2023-07-30T00:19:00;99700.0;;;17.9;80.1
78679;BME280;67994;59.334;13.528;2023-07-30T00:20:00;99700.0;;;18.0;81.6
78679;BME280;67994;59.334;13.528;2023-07-30T00:21:00;99700.0;;;18.0;81.7
78679;BME280;67994;59.334;13.528;2023-07-30T00:22:00;99700.0;;;18.0;81.5
78679;BME280;67994;59.334;13.528;2023-07-30T00:23:00;99700.0;;;18.0;81.2
78679;BME280;67994;59.334;13.528;2023-07-30T00:24:00;99700.0;;;18.0;81.4
78679;BME280;67994;59.334;13.528;2023-07-30T00:25:00;99700.0;;;18.0;81.7
78679;BME280;67994;59.334;13.528;2023-07-30T00:26:00;99700.0;;;17.9;82.2
78679;BME280;67994;59.334;13.528;2023-07-30T00:27:00;99700.0;;;17.9;82.1
78679;BME280;67994;59.334;13.528;2023-07-30T00:28:00;99700.0;;;17.9;82.4
78679;BME280;67994;59.334;13.528;2023-07-30T00:29:00;99700.0;;;17.8;82.3
78679;BME280;67994;59.334;13.528;2023-07-30T00:30:00;99700.0;;;17.8;82.9
78679;BME280;67994;59.334;13.528;2023-07-30T00:31:00;99700.0;;;17.8;82.5
78679;BME280;67994;59.334;13.528;2023-07-30T00:32:00;99700.0;;;17.7;83.5
78679;BME280;67994;59.334;13.528;2023-07-30T00:33:00;99700.0;;;17.7;83.6
78679;BME280;67994;59.334;13.528;2023-07-30T00:34:00;99700.0;;;17.6;83.5
78679;BME280;67994;59.334;13.528;2023-07-30T00:35:00;99700.0;;;17.6;83.7
78679;BME280;67994;59.334;13.528;2023-07-30T00:36:00;99700.0;;;17.6;84.1
78679;BME280;67994;59.334;13.528;2023-07-30T00:37:00;99700.0;;;17.5;83.7
78679;BME280;67994;59.334;13.528;2023-07-30T00:38:00;99700.0;;;17.5;83.8
78679;BME280;67994;59.334;13.528;2023-07-30T00:39:00;99700.0;;;17.5;84.1
78679;BME280;67994;59.334;13.528;2023-07-30T00:40:01;99700.0;;;17.6;83.6
78679;BME280;67994;59.334;13.528;2023-07-30T00:41:00;99700.0;;;17.6;82.9
78679;BME280;67994;59.334;13.528;2023-07-30T00:42:00;99700.0;;;17.6;83.1
78679;BME280;67994;59.334;13.528;2023-07-30T00:43:00;99700.0;;;17.6;81.8
78679;BME280;67994;59.334;13.528;2023-07-30T00:44:00;99700.0;;;17.7;82.6
78679;BME280;67994;59.334;13.528;2023-07-30T00:45:00;99700.0;;;17.7;83.0
78679;BME280;67994;59.334;13.528;2023-07-30T00:46:00;99700.0;;;17.8;81.8
78679;BME280;67994;59.334;13.528;2023-07-30T00:47:00;99700.0;;;17.8;83.0
78679;BME280;67994;59.334;13.528;2023-07-30T00:48:00;99700.0;;;17.7;82.9
78679;BME280;67994;59.334;13.528;2023-07-30T00:49:00;99700.0;;;17.7;83.1
78679;BME280;67994;59.334;13.528;2023-07-30T00:50:00;99700.0;;;17.7;83.9
78679;BME280;67994;59.334;13.528;2023-07-30T00:51:00;99700.0;;;17.7;83.8
78679;BME280;67994;59.334;13.528;2023-07-30T00:52:00;99700.0;;;17.5;84.7
78679;BME280;67994;59.334;13.528;2023-07-30T00:53:00;99700.0;;;17.5;84.6
78679;BME280;67994;59.334;13.528;2023-07-30T00:54:00;99700.0;;;17.6;84.5
78679;BME280;67994;59.334;13.528;2023-07-30T00:55:02;99700.0;;;17.5;84.6
78679;BME280;67994;59.334;13.528;2023-07-30T00:56:00;99700.0;;;17.5;84.5
78679;BME280;67994;59.334;13.528;2023-07-30T00:57:00;99700.0;;;17.5;84.6
78679;BME280;67994;59.334;13.528;2023-07-30T00:58:01;99700.0;;;17.6;84.4
78679;BME280;67994;59.334;13.528;2023-07-30T00:59:00;99700.0;;;17.6;84.5
78679;BME280;67994;59.334;13.528;2023-07-30T01:00:00;99700.0;;;17.6;84.2
78679;BME280;67994;59.334;13.528;2023-07-30T01:01:00;99700.0;;;17.6;84.1
78679;BME280;67994;59.334;13.528;2023-07-30T01:02:00;99700.0;;;17.7;84.0
78679;BME280;67994;59.334;13.528;2023-07-30T01:03:00;99700.0;;;17.7;84.0
78679;BME280;67994;59.334;13.528;2023-07-30T01:04:00;99700.0;;;17.7;83.9
78679;BME280;67994;59.334;13.528;2023-07-30T01:05:01;99700.0;;;17.7;83.8
78679;BME280;67994;59.334;13.528;2023-07-30T01:06:00;99700.0;;;17.6;84.1
78679;BME280;67994;59.334;13.528;2023-07-30T01:07:00;99700.0;;;17.4;85.2
78679;BME280;67994;59.334;13.528;2023-07-30T01:08:00;99700.0;;;17.4;84.9
78679;BME280;67994;59.334;13.528;2023-07-30T01:09:00;99700.0;;;17.6;82.9
78679;BME280;67994;59.334;13.528;2023-07-30T01:10:01;99700.0;;;17.6;83.7
78679;BME280;67994;59.334;13.528;2023-07-30T01:11:01;99700.0;;;17.6;83.9
78679;BME280;67994;59.334;13.528;2023-07-30T01:12:01;99700.0;;;17.7;83.7
78679;BME280;67994;59.334;13.528;2023-07-30T01:13:01;99700.0;;;17.7;83.6
78679;BME280;67994;59.334;13.528;2023-07-30T01:14:00;99700.0;;;17.7;83.7
78679;BME280;67994;59.334;13.528;2023-07-30T01:15:00;99700.0;;;17.7;83.6
78679;BME280;67994;59.334;13.528;2023-07-30T01:16:00;99700.0;;;17.7;83.7
78679;BME280;67994;59.334;13.528;2023-07-30T01:17:00;99700.0;;;17.7;83.5
78679;BME280;67994;59.334;13.528;2023-07-30T01:18:00;99700.0;;;17.6;83.6
78679;BME280;67994;59.334;13.528;2023-07-30T01:19:00;99700.0;;;17.7;83.2
78679;BME280;67994;59.334;13.528;2023-07-30T01:20:00;99700.0;;;17.7;83.4
78679;BME280;67994;59.334;13.528;2023-07-30T01:21:00;99700.0;;;17.7;84.0
78679;BME280;67994;59.334;13.528;2023-07-30T01:22:00;99700.0;;;17.7;83.8
78679;BME280;67994;59.334;13.528;2023-07-30T01:23:00;99700.0;;;17.6;84.5
78679;BME280;67994;59.334;13.528;2023-07-30T01:24:00;99700.0;;;17.5;84.9
78679;BME280;67994;59.334;13.528;2023-07-30T01:25:00;99700.0;;;17.5;84.9
78679;BME280;67994;59.334;13.528;2023-07-30T01:26:03;99700.0;;;17.5;85.1
78679;BME280;67994;59.334;13.528;2023-07-30T01:27:03;99700.0;;;17.5;85.0
78679;BME280;67994;59.334;13.528;2023-07-30T01:28:00;99700.0;;;17.5;85.3
78679;BME280;67994;59.334;13.528;2023-07-30T01:29:03;99700.0;;;17.4;85.4
78679;BME280;67994;59.334;13.528;2023-07-30T01:30:03;99700.0;;;17.3;86.0
78679;BME280;67994;59.334;13.528;2023-07-30T01:31:01;99700.0;;;17.4;85.7
78679;BME280;67994;59.334;13.528;2023-07-30T01:32:04;99700.0;;;17.4;85.5
78679;BME280;67994;59.334;13.528;2023-07-30T01:33:01;99700.0;;;17.4;85.4
78679;BME280;67994;59.334;13.528;2023-07-30T01:34:02;99700.0;;;17.5;84.9
78679;BME280;67994;59.334;13.528;2023-07-30T01:35:01;99700.0;;;17.4;85.4
78679;BME280;67994;59.334;13.528;2023-07-30T01:36:01;99700.0;;;17.4;85.1
78679;BME280;67994;59.334;13.528;2023-07-30T01:37:00;99700.0;;;17.4;85.3
78679;BME280;67994;59.334;13.528;2023-07-30T01:38:01;99700.0;;;17.4;84.8
78679;BME280;67994;59.334;13.528;2023-07-30T01:39:01;99700.0;;;17.4;84.8
78679;BME280;67994;59.334;13.528;2023-07-30T01:40:01;99700.0;;;17.4;84.8
78679;BME280;67994;59.334;13.528;2023-07-30T01:41:00;99700.0;;;17.4;84.6
78679;BME280;67994;59.334;13.528;2023-07-30T01:42:00;99700.0;;;17.5;84.1
78679;BME280;67994;59.334;13.528;2023-07-30T01:43:00;99700.0;;;17.5;84.3
78679;BME280;67994;59.334;13.528;2023-07-30T01:44:00;99700.0;;;17.5;84.0
78679;BME280;67994;59.334;13.528;2023-07-30T01:45:00;99700.0;;;17.5;84.1
78679;BME280;67994;59.334;13.528;2023-07-30T01:46:00;99700.0;;;17.5;83.8
78679;BME280;67994;59.334;13.528;2023-07-30T01:47:00;99700.0;;;17.5;83.9
78679;BME280;67994;59.334;13.528;2023-07-30T01:48:00;99700.0;;;17.5;83.7
78679;BME280;67994;59.334;13.528;2023-07-30T01:49:00;99700.0;;;17.5;83.6
78679;BME280;67994;59.334;13.528;2023-07-30T01:50:00;99700.0;;;17.5;83.6
78679;BME280;67994;59.334;13.528;2023-07-30T01:51:00;99700.0;;;17.5;83.7
78679;BME280;67994;59.334;13.528;2023-07-30T01:52:00;99700.0;;;17.4;83.8
78679;BME280;67994;59.334;13.528;2023-07-30T01:53:00;99700.0;;;17.4;83.6
78679;BME280;67994;59.334;13.528;2023-07-30T01:54:00;99700.0;;;17.4;83.6
78679;BME280;67994;59.334;13.528;2023-07-30T01:55:00;99700.0;;;17.4;83.9
78679;BME280;67994;59.334;13.528;2023-07-30T01:56:00;99700.0;;;17.5;83.4
78679;BME280;67994;59.334;13.528;2023-07-30T01:57:00;99700.0;;;17.4;83.5
78679;BME280;67994;59.334;13.528;2023-07-30T01:58:00;99700.0;;;17.5;83.2
78679;BME280;67994;59.334;13.528;2023-07-30T01:59:00;99700.0;;;17.5;83.1
78679;BME280;67994;59.334;13.528;2023-07-30T02:00:00;99700.0;;;17.5;83.1
78679;BME280;67994;59.334;13.528;2023-07-30T02:01:00;99700.0;;;17.5;83.2
78679;BME280;67994;59.334;13.528;2023-07-30T02:02:00;99700.0;;;17.5;83.3
78679;BME280;67994;59.334;13.528;2023-07-30T02:03:00;99700.0;;;17.4;83.3
78679;BME280;67994;59.334;13.528;2023-07-30T02:04:00;99700.0;;;17.4;83.3
78679;BME280;67994;59.334;13.528;2023-07-30T02:05:00;99700.0;;;17.4;83.3
78679;BME280;67994;59.334;13.528;2023-07-30T02:06:00;99700.0;;;17.4;83.3
78679;BME280;67994;59.334;13.528;2023-07-30T02:07:00;99700.0;;;17.4;83.5
78679;BME280;67994;59.334;13.528;2023-07-30T02:08:00;99700.0;;;17.4;83.5
78679;BME280;67994;59.334;13.528;2023-07-30T02:09:00;99700.0;;;17.4;83.5
78679;BME280;67994;59.334;13.528;2023-07-30T02:10:00;99700.0;;;17.4;83.4
78679;BME280;67994;59.334;13.528;2023-07-30T02:11:00;99700.0;;;17.4;83.6
78679;BME280;67994;59.334;13.528;2023-07-30T02:12:00;99700.0;;;17.4;83.1
78679;BME280;67994;59.334;13.528;2023-07-30T02:13:00;99700.0;;;17.4;83.6
78679;BME280;67994;59.334;13.528;2023-07-30T02:14:00;99700.0;;;17.4;83.4
78679;BME280;67994;59.334;13.528;2023-07-30T02:15:00;99700.0;;;17.3;83.3
78679;BME280;67994;59.334;13.528;2023-07-30T02:16:00;99700.0;;;17.3;83.3
78679;BME280;67994;59.334;13.528;2023-07-30T02:17:00;99700.0;;;17.3;83.5
78679;BME280;67994;59.334;13.528;2023-07-30T02:18:00;99700.0;;;17.3;83.7
78679;BME280;67994;59.334;13.528;2023-07-30T02:19:00;99700.0;;;17.3;83.5
78679;BME280;67994;59.334;13.528;2023-07-30T02:20:00;99700.0;;;17.3;83.6
78679;BME280;67994;59.334;13.528;2023-07-30T02:21:00;99700.0;;;17.3;83.8
78679;BME280;67994;59.334;13.528;2023-07-30T02:22:00;99700.0;;;17.2;84.1
78679;BME280;67994;59.334;13.528;2023-07-30T02:23:00;99700.0;;;17.2;83.8
78679;BME280;67994;59.334;13.528;2023-07-30T02:24:00;99700.0;;;17.3;83.3
78679;BME280;67994;59.334;13.528;2023-07-30T02:25:00;99700.0;;;17.3;83.2
78679;BME280;67994;59.334;13.528;2023-07-30T02:26:00;99700.0;;;17.3;83.2
78679;BME280;67994;59.334;13.528;2023-07-30T02:27:00;99700.0;;;17.3;83.4
78679;BME280;67994;59.334;13.528;2023-07-30T02:28:00;99700.0;;;17.3;83.4
78679;BME280;67994;59.334;13.528;2023-07-30T02:29:00;99700.0;;;17.3;83.5
78679;BME280;67994;59.334;13.528;2023-07-30T02:30:00;99700.0;;;17.3;83.4
78679;BME280;67994;59.334;13.528;2023-07-30T02:31:00;99700.0;;;17.2;83.5
78679;BME280;67994;59.334;13.528;2023-07-30T02:32:00;99700.0;;;17.2;83.4
78679;BME280;67994;59.334;13.528;2023-07-30T02:33:00;99700.0;;;17.2;83.7
78679;BME280;67994;59.334;13.528;2023-07-30T02:34:00;99700.0;;;17.2;83.7
78679;BME280;67994;59.334;13.528;2023-07-30T02:35:00;99700.0;;;17.2;83.4
78679;BME280;67994;59.334;13.528;2023-07-30T02:36:00;99700.0;;;17.2;83.4
78679;BME280;67994;59.334;13.528;2023-07-30T02:37:00;99700.0;;;17.2;83.5
78679;BME280;67994;59.334;13.528;2023-07-30T02:38:00;99700.0;;;17.2;83.7
78679;BME280;67994;59.334;13.528;2023-07-30T02:39:00;99700.0;;;17.1;84.0
78679;BME280;67994;59.334;13.528;2023-07-30T02:40:00;99700.0;;;17.1;84.0
78679;BME280;67994;59.334;13.528;2023-07-30T02:41:00;99700.0;;;17.1;83.7
78679;BME280;67994;59.334;13.528;2023-07-30T02:42:00;99700.0;;;17.1;83.6
78679;BME280;67994;59.334;13.528;2023-07-30T02:43:00;99700.0;;;17.1;83.6
78679;BME280;67994;59.334;13.528;2023-07-30T02:44:00;99700.0;;;17.1;83.5
78679;BME280;67994;59.334;13.528;2023-07-30T02:45:00;99700.0;;;17.0;83.9
78679;BME280;67994;59.334;13.528;2023-07-30T02:46:00;99700.0;;;17.0;83.6
78679;BME280;67994;59.334;13.528;2023-07-30T02:47:00;99700.0;;;17.0;83.9
78679;BME280;67994;59.334;13.528;2023-07-30T02:48:00;99700.0;;;17.0;83.9
78679;BME280;67994;59.334;13.528;2023-07-30T02:49:00;99700.0;;;17.0;83.6
78679;BME280;67994;59.334;13.528;2023-07-30T02:50:02;99700.0;;;17.0;83.4
78679;BME280;67994;59.334;13.528;2023-07-30T02:51:00;99700.0;;;17.0;83.2
78679;BME280;67994;59.334;13.528;2023-07-30T02:52:00;99700.0;;;17.0;83.1
78679;BME280;67994;59.334;13.528;2023-07-30T02:53:00;99700.0;;;17.0;83.7
78679;BME280;67994;59.334;13.528;2023-07-30T02:54:04;99700.0;;;16.9;83.9
78679;BME280;67994;59.334;13.528;2023-07-30T02:55:00;99700.0;;;16.9;83.9
78679;BME280;67994;59.334;13.528;2023-07-30T02:56:00;99700.0;;;16.8;83.8
78679;BME280;67994;59.334;13.528;2023-07-30T02:57:00;99700.0;;;16.8;84.5
78679;BME280;67994;59.334;13.528;2023-07-30T02:58:00;99700.0;;;16.7;84.4
78679;BME280;67994;59.334;13.528;2023-07-30T02:59:01;99700.0;;;16.8;84.2
78679;BME280;67994;59.334;13.528;2023-07-30T03:00:00;99700.0;;;16.8;83.5
78679;BME280;67994;59.334;13.528;2023-07-30T03:01:05;99700.0;;;16.7;84.2
78679;BME280;67994;59.334;13.528;2023-07-30T03:02:00;99700.0;;;16.8;84.2
78679;BME280;67994;59.334;13.528;2023-07-30T03:03:00;99700.0;;;16.7;84.2
78679;BME280;67994;59.334;13.528;2023-07-30T03:04:00;99700.0;;;16.8;83.7
78679;BME280;67994;59.334;13.528;2023-07-30T03:05:00;99700.0;;;16.8;83.6
78679;BME280;67994;59.334;13.528;2023-07-30T03:06:00;99700.0;;;16.7;83.6
78679;BME280;67994;59.334;13.528;2023-07-30T03:07:00;99700.0;;;16.7;83.8
78679;BME280;67994;59.334;13.528;2023-07-30T03:08:00;99700.0;;;16.7;83.7
78679;BME280;67994;59.334;13.528;2023-07-30T03:09:00;99700.0;;;16.7;83.4
78679;BME280;67994;59.334;13.528;2023-07-30T03:10:00;99700.0;;;16.7;83.3
78679;BME280;67994;59.334;13.528;2023-07-30T03:11:00;99700.0;;;16.7;83.3
78679;BME280;67994;59.334;13.528;2023-07-30T03:12:00;99700.0;;;16.7;83.0
78679;BME280;67994;59.334;13.528;2023-07-30T03:13:00;99700.0;;;16.7;82.8
78679;BME280;67994;59.334;13.528;2023-07-30T03:14:00;99700.0;;;16.7;82.9
78679;BME280;67994;59.334;13.528;2023-07-30T03:15:00;99700.0;;;16.7;82.9
78679;BME280;67994;59.334;13.528;2023-07-30T03:16:00;99700.0;;;16.7;83.0
78679;BME280;67994;59.334;13.528;2023-07-30T03:17:00;99700.0;;;16.7;82.9
78679;BME280;67994;59.334;13.528;2023-07-30T03:18:00;99700.0;;;16.7;82.9
78679;BME280;67994;59.334;13.528;2023-07-30T03:19:00;99700.0;;;16.6;83.0
78679;BME280;67994;59.334;13.528;2023-07-30T03:20:01;99700.0;;;16.7;82.9
78679;BME280;67994;59.334;13.528;2023-07-30T03:21:00;99700.0;;;16.6;82.8
78679;BME280;67994;59.334;13.528;2023-07-30T03:22:00;99700.0;;;16.6;83.1
78679;BME280;67994;59.334;13.528;2023-07-30T03:23:00;99700.0;;;16.6;83.1
78679;BME280;67994;59.334;13.528;2023-07-30T03:24:00;99700.0;;;16.6;83.1
78679;BME280;67994;59.334;13.528;2023-07-30T03:25:00;99700.0;;;16.6;83.5
78679;BME280;67994;59.334;13.528;2023-07-30T03:26:00;99700.0;;;16.6;83.3
78679;BME280;67994;59.334;13.528;2023-07-30T03:27:00;99700.0;;;16.6;83.7
78679;BME280;67994;59.334;13.528;2023-07-30T03:28:00;99700.0;;;16.5;83.9
78679;BME280;67994;59.334;13.528;2023-07-30T03:29:00;99700.0;;;16.6;83.7
78679;BME280;67994;59.334;13.528;2023-07-30T03:30:00;99700.0;;;16.6;83.6
78679;BME280;67994;59.334;13.528;2023-07-30T03:31:00;99700.0;;;16.6;84.0
78679;BME280;67994;59.334;13.528;2023-07-30T03:32:00;99700.0;;;16.7;84.1
78679;BME280;67994;59.334;13.528;2023-07-30T03:33:00;99700.0;;;16.7;83.7
78679;BME280;67994;59.334;13.528;2023-07-30T03:34:00;99700.0;;;16.7;84.0
78679;BME280;67994;59.334;13.528;2023-07-30T03:35:00;99700.0;;;16.8;83.3
78679;BME280;67994;59.334;13.528;2023-07-30T03:36:00;99700.0;;;16.8;83.4
78679;BME280;67994;59.334;13.528;2023-07-30T03:37:00;99700.0;;;16.8;83.3
78679;BME280;67994;59.334;13.528;2023-07-30T03:38:00;99700.0;;;16.8;83.3
78679;BME280;67994;59.334;13.528;2023-07-30T03:39:00;99700.0;;;16.8;83.0
78679;BME280;67994;59.334;13.528;2023-07-30T03:40:00;99700.0;;;16.8;82.8
78679;BME280;67994;59.334;13.528;2023-07-30T03:41:00;99700.0;;;16.7;83.1
78679;BME280;67994;59.334;13.528;2023-07-30T03:42:00;99700.0;;;16.7;83.2
78679;BME280;67994;59.334;13.528;2023-07-30T03:43:00;99700.0;;;16.7;82.9
78679;BME280;67994;59.334;13.528;2023-07-30T03:44:00;99700.0;;;16.8;82.7
78679;BME280;67994;59.334;13.528;2023-07-30T03:45:00;99700.0;;;16.8;82.6
78679;BME280;67994;59.334;13.528;2023-07-30T03:46:00;99700.0;;;16.7;82.9
78679;BME280;67994;59.334;13.528;2023-07-30T03:47:00;99700.0;;;16.7;83.0
78679;BME280;67994;59.334;13.528;2023-07-30T03:48:00;99700.0;;;16.6;83.1
78679;BME280;67994;59.334;13.528;2023-07-30T03:49:00;99700.0;;;16.6;83.1
78679;BME280;67994;59.334;13.528;2023-07-30T03:50:00;99700.0;;;16.6;83.1
78679;BME280;67994;59.334;13.528;2023-07-30T03:51:00;99700.0;;;16.6;83.2
78679;BME280;67994;59.334;13.528;2023-07-30T03:52:00;99700.0;;;16.7;83.0
78679;BME280;67994;59.334;13.528;2023-07-30T03:53:00;99700.0;;;16.7;82.7
78679;BME280;67994;59.334;13.528;2023-07-30T03:54:00;99700.0;;;16.7;82.8
78679;BME280;67994;59.334;13.528;2023-07-30T03:55:00;99700.0;;;16.7;82.9
78679;BME280;67994;59.334;13.528;2023-07-30T03:56:00;99700.0;;;16.7;83.0
78679;BME280;67994;59.334;13.528;2023-07-30T03:57:00;99700.0;;;16.8;82.7
78679;BME280;67994;59.334;13.528;2023-07-30T03:58:00;99700.0;;;16.7;83.0
78679;BME280;67994;59.334;13.528;2023-07-30T03:59:00;99700.0;;;16.8;83.1
78679;BME280;67994;59.334;13.528;2023-07-30T04:00:00;99700.0;;;16.9;82.8
78679;BME280;67994;59.334;13.528;2023-07-30T04:01:00;99700.0;;;17.0;82.3
78679;BME280;67994;59.334;13.528;2023-07-30T04:02:00;99700.0;;;17.0;82.3
78679;BME280;67994;59.334;13.528;2023-07-30T04:03:00;99700.0;;;16.9;82.5
78679;BME280;67994;59.334;13.528;2023-07-30T04:04:00;99700.0;;;17.0;82.3
78679;BME280;67994;59.334;13.528;2023-07-30T04:05:00;99700.0;;;17.1;82.7
78679;BME280;67994;59.334;13.528;2023-07-30T04:06:00;99700.0;;;17.5;82.0
78679;BME280;67994;59.334;13.528;2023-07-30T04:07:00;99700.0;;;17.7;80.6
78679;BME280;67994;59.334;13.528;2023-07-30T04:08:00;99700.0;;;17.7;80.6
78679;BME280;67994;59.334;13.528;2023-07-30T04:09:00;99700.0;;;17.6;80.8
78679;BME280;67994;59.334;13.528;2023-07-30T04:10:00;99700.0;;;17.6;81.2
78679;BME280;67994;59.334;13.528;2023-07-30T04:11:00;99700.0;;;18.2;80.4
78679;BME280;67994;59.334;13.528;2023-07-30T04:12:00;99700.0;;;18.5;78.1
78679;BME280;67994;59.334;13.528;2023-07-30T04:13:01;99700.0;;;18.5;78.2
78679;BME280;67994;59.334;13.528;2023-07-30T04:14:00;99700.0;;;18.4;78.1
78679;BME280;67994;59.334;13.528;2023-07-30T04:15:00;99700.0;;;18.4;78.4
78679;BME280;67994;59.334;13.528;2023-07-30T04:16:00;99700.0;;;18.3;78.5
78679;BME280;67994;59.334;13.528;2023-07-30T04:17:00;99700.0;;;18.1;79.0
78679;BME280;67994;59.334;13.528;2023-07-30T04:18:00;99700.0;;;18.0;79.2
78679;BME280;67994;59.334;13.528;2023-07-30T04:19:00;99700.0;;;17.8;79.5
78679;BME280;67994;59.334;13.528;2023-07-30T04:20:00;99700.0;;;17.7;79.8
78679;BME280;67994;59.334;13.528;2023-07-30T04:21:00;99700.0;;;17.8;79.9
78679;BME280;67994;59.334;13.528;2023-07-30T04:22:00;99700.0;;;18.0;80.0
78679;BME280;67994;59.334;13.528;2023-07-30T04:23:00;99700.0;;;18.6;78.9
78679;BME280;67994;59.334;13.528;2023-07-30T04:24:00;99700.0;;;19.0;77.5
78679;BME280;67994;59.334;13.528;2023-07-30T04:25:00;99700.0;;;19.3;76.8
78679;BME280;67994;59.334;13.528;2023-07-30T04:26:00;99700.0;;;19.6;76.6
78679;BME280;67994;59.334;13.528;2023-07-30T04:27:00;99700.0;;;19.7;75.9
78679;BME280;67994;59.334;13.528;2023-07-30T04:28:00;99700.0;;;19.6;76.1
78679;BME280;67994;59.334;13.528;2023-07-30T04:29:00;99700.0;;;19.7;75.2
78679;BME280;67994;59.334;13.528;2023-07-30T04:30:00;99700.0;;;19.4;76.2
78679;BME280;67994;59.334;13.528;2023-07-30T04:31:00;99700.0;;;19.2;76.5
78679;BME280;67994;59.334;13.528;2023-07-30T04:32:00;99700.0;;;18.9;77.6
78679;BME280;67994;59.334;13.528;2023-07-30T04:33:00;99700.0;;;18.8;77.6
78679;BME280;67994;59.334;13.528;2023-07-30T04:34:00;99700.0;;;18.7;77.6
78679;BME280;67994;59.334;13.528;2023-07-30T04:35:01;99700.0;;;18.6;77.9
78679;BME280;67994;59.334;13.528;2023-07-30T04:36:00;99700.0;;;18.6;77.8
78679;BME280;67994;59.334;13.528;2023-07-30T04:37:00;99700.0;;;18.6;77.0
78679;BME280;67994;59.334;13.528;2023-07-30T04:38:00;99700.0;;;18.6;78.4
78679;BME280;67994;59.334;13.528;2023-07-30T04:39:00;99700.0;;;18.5;79.3
78679;BME280;67994;59.334;13.528;2023-07-30T04:40:00;99700.0;;;18.7;79.4
78679;BME280;67994;59.334;13.528;2023-07-30T04:41:00;99700.0;;;19.1;79.4
78679;BME280;67994;59.334;13.528;2023-07-30T04:42:00;99700.0;;;19.5;78.5
78679;BME280;67994;59.334;13.528;2023-07-30T04:43:00;99700.0;;;20.0;77.2
78679;BME280;67994;59.334;13.528;2023-07-30T04:44:00;99700.0;;;20.6;75.7
78679;BME280;67994;59.334;13.528;2023-07-30T04:45:00;99700.0;;;20.8;74.9
78679;BME280;67994;59.334;13.528;2023-07-30T04:46:00;99700.0;;;21.1;74.0
78679;BME280;67994;59.334;13.528;2023-07-30T04:47:00;99700.0;;;21.4;73.4
78679;BME280;67994;59.334;13.528;2023-07-30T04:48:00;99700.0;;;21.6;72.8
78679;BME280;67994;59.334;13.528;2023-07-30T04:49:01;99700.0;;;21.6;73.3
78679;BME280;67994;59.334;13.528;2023-07-30T04:50:00;99700.0;;;21.4;72.8
78679;BME280;67994;59.334;13.528;2023-07-30T04:51:00;99700.0;;;21.4;72.4
78679;BME280;67994;59.334;13.528;2023-07-30T04:52:00;99700.0;;;21.2;74.2
78679;BME280;67994;59.334;13.528;2023-07-30T04:53:00;99700.0;;;20.9;74.6
78679;BME280;67994;59.334;13.528;2023-07-30T04:54:00;99700.0;;;20.8;72.2
78679;BME280;67994;59.334;13.528;2023-07-30T04:55:00;99700.0;;;20.8;72.4
78679;BME280;67994;59.334;13.528;2023-07-30T04:56:00;99700.0;;;20.6;75.3
78679;BME280;67994;59.334;13.528;2023-07-30T04:57:00;99700.0;;;20.4;75.5
78679;BME280;67994;59.334;13.528;2023-07-30T04:58:00;99700.0;;;20.5;76.5
78679;BME280;67994;59.334;13.528;2023-07-30T04:59:00;99700.0;;;20.5;76.1
78679;BME280;67994;59.334;13.528;2023-07-30T05:00:00;99700.0;;;20.7;76.0
78679;BME280;67994;59.334;13.528;2023-07-30T05:01:00;99700.0;;;20.7;76.3
78679;BME280;67994;59.334;13.528;2023-07-30T05:02:00;99700.0;;;20.9;76.5
78679;BME280;67994;59.334;13.528;2023-07-30T05:03:00;99700.0;;;20.9;76.6
78679;BME280;67994;59.334;13.528;2023-07-30T05:04:00;99700.0;;;20.8;76.3
78679;BME280;67994;59.334;13.528;2023-07-30T05:05:00;99700.0;;;20.7;76.4
78679;BME280;67994;59.334;13.528;2023-07-30T05:06:00;99700.0;;;20.8;76.9
78679;BME280;67994;59.334;13.528;2023-07-30T05:07:00;99700.0;;;20.9;75.8
78679;BME280;67994;59.334;13.528;2023-07-30T05:08:00;99700.0;;;21.1;73.5
78679;BME280;67994;59.334;13.528;2023-07-30T05:09:00;99700.0;;;21.2;75.3
78679;BME280;67994;59.334;13.528;2023-07-30T05:10:00;99700.0;;;21.1;74.4
78679;BME280;67994;59.334;13.528;2023-07-30T05:11:00;99700.0;;;21.3;75.3
78679;BME280;67994;59.334;13.528;2023-07-30T05:12:00;99700.0;;;21.1;76.1
78679;BME280;67994;59.334;13.528;2023-07-30T05:13:00;99700.0;;;20.6;75.8
78679;BME280;67994;59.334;13.528;2023-07-30T05:14:00;99700.0;;;20.5;75.2
78679;BME280;67994;59.334;13.528;2023-07-30T05:15:00;99700.0;;;20.4;76.1
78679;BME280;67994;59.334;13.528;2023-07-30T05:16:00;99700.0;;;20.5;76.3
78679;BME280;67994;59.334;13.528;2023-07-30T05:17:00;99700.0;;;20.4;77.4
78679;BME280;67994;59.334;13.528;2023-07-30T05:18:00;99700.0;;;20.6;75.6
78679;BME280;67994;59.334;13.528;2023-07-30T05:19:00;99700.0;;;20.7;76.1
78679;BME280;67994;59.334;13.528;2023-07-30T05:20:00;99700.0;;;20.8;75.6
78679;BME280;67994;59.334;13.528;2023-07-30T05:21:00;99700.0;;;20.8;74.9
78679;BME280;67994;59.334;13.528;2023-07-30T05:22:00;99700.0;;;20.9;74.9
78679;BME280;67994;59.334;13.528;2023-07-30T05:23:00;99700.0;;;21.1;76.1
78679;BME280;67994;59.334;13.528;2023-07-30T05:24:00;99700.0;;;21.0;77.1
78679;BME280;67994;59.334;13.528;2023-07-30T05:25:00;99700.0;;;21.0;74.2
78679;BME280;67994;59.334;13.528;2023-07-30T05:26:00;99700.0;;;21.1;76.0